Time;durP1;ratioP1;P1;durP2;ratioP2;P2;SDS_P1;SDS_P2;PMS_P1;PMS_P2;Temp;Humidity;BMP_temperature;BMP_pressure;BME280_temperature;BME280_humidity;BME280_pressure;Samples;Min_cycle;Max_cycle;Signal;HPM_P1;HPM_P2
2022/10/04 00:01:43;;;;;;;22.65;4.30;;;;;;;;;;4930521;29;20378;-62
2022/10/04 00:04:16;;;;;;;35.92;4.75;;;;;;;;;;4929700;29;20071;-61
2022/10/04 00:06:50;;;;;;;31.25;5.22;;;;;;;;;;4931033;29;20171;-59
2022/10/04 00:09:22;;;;;;;35.55;4.95;;;;;;;;;;4927448;29;20502;-61
2022/10/04 00:11:50;;;;;;;27.15;4.57;;;;;;;;;;4920018;29;20028;-62
2022/10/04 00:14:20;;;;;;;30.55;5.47;;;;;;;;;;4936252;23;20048;-51
2022/10/04 00:16:47;;;;;;;29.63;4.60;;;;;;;;;;4932845;29;20032;-52
2022/10/04 00:19:20;;;;;;;38.42;5.07;;;;;;;;;;4931493;29;20048;-53
2022/10/04 00:21:56;;;;;;;30.60;5.85;;;;;;;;;;4932170;29;20079;-50
2022/10/04 00:24:27;;;;;;;39.70;4.78;;;;;;;;;;4929951;29;20040;-53
2022/10/04 00:26:53;;;;;;;41.05;5.03;;;;;;;;;;4932255;29;20027;-53
2022/10/04 00:29:26;;;;;;;31.77;5.13;;;;;;;;;;4932342;29;20279;-57
2022/10/04 00:32:12;;;;;;;30.02;5.07;;;;;;;;;;4931630;29;20032;-56
2022/10/04 00:34:47;;;;;;;37.67;4.97;;;;;;;;;;4932257;29;20033;-51
2022/10/04 00:37:20;;;;;;;32.80;6.00;;;;;;;;;;4932436;29;20036;-57
2022/10/04 00:40:07;;;;;;;54.88;10.38;;;;;;;;;;4930841;29;20446;-53
2022/10/04 00:42:41;;;;;;;80.95;18.05;;;;;;;;;;4930929;29;20075;-57
2022/10/04 00:45:27;;;;;;;126.72;27.75;;;;;;;;;;4929773;29;20086;-55
2022/10/04 00:48:05;;;;;;;160.40;42.08;;;;;;;;;;4934572;29;20048;-57
2022/10/04 00:50:32;;;;;;;211.35;53.78;;;;;;;;;;4933271;29;20094;-55
2022/10/04 00:53:00;;;;;;;226.00;66.50;;;;;;;;;;4933629;29;20058;-54
2022/10/04 00:55:33;;;;;;;254.90;74.72;;;;;;;;;;4932670;29;20031;-56
2022/10/04 00:58:02;;;;;;;263.90;78.90;;;;;;;;;;4933380;29;20082;-55
2022/10/04 01:00:32;;;;;;;240.00;75.38;;;;;;;;;;4933662;29;20056;-54
2022/10/04 01:03:02;;;;;;;222.52;71.47;;;;;;;;;;4933919;28;20035;-54
2022/10/04 01:05:36;;;;;;;206.60;68.90;;;;;;;;;;4933795;29;20024;-57
2022/10/04 01:08:08;;;;;;;175.45;59.40;;;;;;;;;;4938195;29;20032;-55
2022/10/04 01:10:38;;;;;;;181.05;60.60;;;;;;;;;;4938041;29;20019;-56
2022/10/04 01:13:06;;;;;;;170.73;57.28;;;;;;;;;;4937555;28;20050;-57
2022/10/04 01:15:42;;;;;;;160.77;52.13;;;;;;;;;;4936961;29;20051;-55
2022/10/04 01:18:28;;;;;;;150.77;50.17;;;;;;;;;;4935781;29;20055;-58
2022/10/04 01:21:00;;;;;;;127.45;44.08;;;;;;;;;;4934566;29;20032;-57
2022/10/04 01:23:41;;;;;;;123.85;43.80;;;;;;;;;;4934943;29;20040;-56
2022/10/04 01:26:33;;;;;;;135.93;42.08;;;;;;;;;;4935310;29;20044;-57
2022/10/04 01:29:05;;;;;;;127.70;42.67;;;;;;;;;;4935651;29;20046;-49
2022/10/04 01:31:33;;;;;;;114.78;37.80;;;;;;;;;;4934766;29;20119;-52
2022/10/04 01:34:01;;;;;;;108.30;34.00;;;;;;;;;;4935644;29;20110;-56
2022/10/04 01:36:28;;;;;;;101.47;30.70;;;;;;;;;;4935666;29;20478;-57
2022/10/04 01:38:55;;;;;;;106.95;31.10;;;;;;;;;;4935425;29;20043;-56
2022/10/04 01:41:26;;;;;;;87.85;29.17;;;;;;;;;;4936374;29;20035;-55
2022/10/04 01:43:54;;;;;;;82.45;25.63;;;;;;;;;;4934420;29;20031;-57
2022/10/04 01:46:33;;;;;;;78.53;24.55;;;;;;;;;;4937269;29;20117;-58
2022/10/04 01:49:03;;;;;;;88.07;25.00;;;;;;;;;;4936098;29;20028;-57
2022/10/04 01:51:31;;;;;;;80.38;24.27;;;;;;;;;;4933440;29;20386;-53
2022/10/04 01:54:05;;;;;;;82.95;23.73;;;;;;;;;;4935930;29;20110;-55
2022/10/04 01:56:37;;;;;;;81.18;23.33;;;;;;;;;;4934494;29;20052;-53
2022/10/04 01:59:04;;;;;;;;;;;;;;;;;;4935221;29;20036;-50
2022/10/04 02:01:44;;;;;;;68.65;21.17;;;;;;;;;;4936064;29;19914;-50
2022/10/04 02:04:11;;;;;;;71.90;19.65;;;;;;;;;;4933938;29;20450;-56
2022/10/04 02:06:39;;;;;;;77.13;20.35;;;;;;;;;;4936545;29;20024;-51
2022/10/04 02:09:12;;;;;;;68.88;20.55;;;;;;;;;;4936345;29;20026;-54
2022/10/04 02:11:40;;;;;;;60.72;17.65;;;;;;;;;;4936620;28;20541;-52
2022/10/04 02:14:14;;;;;;;73.35;20.70;;;;;;;;;;4936145;29;20505;-54
2022/10/04 02:16:43;;;;;;;62.40;18.02;;;;;;;;;;4935823;29;20367;-54
2022/10/04 02:19:11;;;;;;;67.00;18.65;;;;;;;;;;4936278;29;20035;-55
2022/10/04 02:21:38;;;;;;;58.90;17.42;;;;;;;;;;4937620;28;20394;-57
2022/10/04 02:24:06;;;;;;;60.92;17.20;;;;;;;;;;4937618;29;20098;-54
2022/10/04 02:26:33;;;;;;;63.17;17.67;;;;;;;;;;4937593;29;20497;-56
2022/10/04 02:29:01;;;;;;;54.53;16.05;;;;;;;;;;4937626;29;20028;-56
2022/10/04 02:34:13;;;;;;;45.38;15.15;;;;;;;;;;4937672;29;20046;-52
2022/10/04 02:36:41;;;;;;;47.63;14.23;;;;;;;;;;4937417;29;20087;-58
2022/10/04 02:39:28;;;;;;;39.97;13.80;;;;;;;;;;4937342;29;20082;-56
2022/10/04 02:41:58;;;;;;;46.25;13.60;;;;;;;;;;4937313;28;20039;-56
2022/10/04 02:44:25;;;;;;;56.70;14.73;;;;;;;;;;4937169;29;20023;-57
2022/10/04 02:46:56;;;;;;;53.10;13.00;;;;;;;;;;4937294;29;20497;-57
2022/10/04 02:49:30;;;;;;;41.47;11.98;;;;;;;;;;4937270;28;20043;-55
2022/10/04 02:52:32;;;;;;;44.38;11.93;;;;;;;;;;4937211;29;20035;-55
2022/10/04 02:55:05;;;;;;;45.50;12.47;;;;;;;;;;4934841;29;20024;-54
2022/10/04 02:57:33;;;;;;;40.42;11.57;;;;;;;;;;4936533;29;20489;-54
2022/10/04 03:00:17;;;;;;;38.28;11.68;;;;;;;;;;4937094;29;20581;-56
2022/10/04 03:03:02;;;;;;;41.70;11.18;;;;;;;;;;4936983;29;20052;-55
2022/10/04 03:05:29;;;;;;;32.15;10.65;;;;;;;;;;4936895;29;20043;-56
2022/10/04 03:07:56;;;;;;;43.15;10.93;;;;;;;;;;4936808;29;20389;-56
2022/10/04 03:10:24;;;;;;;31.88;10.75;;;;;;;;;;4936762;29;20032;-56
2022/10/04 03:12:52;;;;;;;38.03;9.80;;;;;;;;;;4936658;29;20508;-54
2022/10/04 03:15:19;;;;;;;36.30;9.30;;;;;;;;;;4936566;29;20047;-56
2022/10/04 03:17:46;;;;;;;35.50;9.52;;;;;;;;;;4936603;29;20498;-55
2022/10/04 03:20:19;;;;;;;34.45;8.35;;;;;;;;;;4936633;29;20083;-56
2022/10/04 03:22:49;;;;;;;31.55;8.65;;;;;;;;;;4936676;28;20099;-56
2022/10/04 03:25:29;;;;;;;29.55;8.25;;;;;;;;;;4936548;28;20044;-57
2022/10/04 03:28:00;;;;;;;27.40;7.55;;;;;;;;;;4936425;29;20035;-56
2022/10/04 03:30:27;;;;;;;26.35;7.05;;;;;;;;;;4935851;28;20506;-56
2022/10/04 03:32:55;;;;;;;26.80;7.57;;;;;;;;;;4936338;29;20032;-57
2022/10/04 03:35:37;;;;;;;21.65;7.38;;;;;;;;;;4936288;28;20049;-56
2022/10/04 03:38:09;;;;;;;31.13;7.25;;;;;;;;;;4936209;29;20031;-57
2022/10/04 03:40:37;;;;;;;28.13;7.00;;;;;;;;;;4936320;29;20497;-57
2022/10/04 03:43:05;;;;;;;25.88;6.93;;;;;;;;;;4936154;29;20047;-57
2022/10/04 03:45:33;;;;;;;28.15;6.82;;;;;;;;;;4936092;29;20039;-58
2022/10/04 03:48:09;;;;;;;22.55;6.68;;;;;;;;;;4936097;29;20039;-54
2022/10/04 03:50:43;;;;;;;23.42;5.85;;;;;;;;;;4936073;29;20043;-56
2022/10/04 03:53:29;;;;;;;24.60;5.75;;;;;;;;;;4936241;29;20390;-56
2022/10/04 03:55:57;;;;;;;29.35;7.30;;;;;;;;;;4935928;29;20020;-57
2022/10/04 03:58:24;;;;;;;27.13;5.60;;;;;;;;;;4950586;28;20036;-55
2022/10/04 04:01:12;;;;;;;23.13;5.70;;;;;;;;;;4936039;29;20035;-57
2022/10/04 04:04:00;;;;;;;18.98;5.07;;;;;;;;;;4935873;28;20027;-56
2022/10/04 04:06:31;;;;;;;23.63;5.63;;;;;;;;;;4935860;29;20516;-57
2022/10/04 04:08:59;;;;;;;17.97;5.00;;;;;;;;;;4935930;29;20502;-56
2022/10/04 04:11:26;;;;;;;24.92;5.53;;;;;;;;;;4935797;29;20083;-54
2022/10/04 04:14:09;;;;;;;25.75;5.55;;;;;;;;;;4935496;29;20043;-55
2022/10/04 04:16:37;;;;;;;23.02;5.13;;;;;;;;;;4935740;28;20031;-56
2022/10/04 04:19:05;;;;;;;19.13;4.97;;;;;;;;;;4935676;28;20039;-54
2022/10/04 04:21:33;;;;;;;20.83;4.82;;;;;;;;;;4935648;29;20051;-57
2022/10/04 04:24:04;;;;;;;20.98;4.53;;;;;;;;;;4935611;29;20079;-57
2022/10/04 04:26:42;;;;;;;16.10;4.50;;;;;;;;;;4935459;29;20122;-52
2022/10/04 04:29:15;;;;;;;15.18;5.07;;;;;;;;;;4935536;29;20027;-56
2022/10/04 04:31:45;;;;;;;21.52;4.65;;;;;;;;;;4935451;29;20043;-56
2022/10/04 04:34:18;;;;;;;18.50;3.85;;;;;;;;;;4935493;29;20797;-56
2022/10/04 04:36:46;;;;;;;23.52;4.95;;;;;;;;;;4935473;29;20413;-53
2022/10/04 04:42:04;;;;;;;14.65;4.45;;;;;;;;;;4942068;29;20111;-55
2022/10/04 04:44:32;;;;;;;15.23;4.38;;;;;;;;;;4941672;29;20038;-56
2022/10/04 04:46:59;;;;;;;24.83;4.45;;;;;;;;;;4941748;29;20087;-55
2022/10/04 04:49:31;;;;;;;17.20;4.40;;;;;;;;;;4941792;29;20027;-56
2022/10/04 04:51:58;;;;;;;15.80;4.20;;;;;;;;;;4941823;28;20046;-54
2022/10/04 04:54:27;;;;;;;13.02;3.45;;;;;;;;;;4941661;29;20106;-56
2022/10/04 04:56:56;;;;;;;17.17;4.15;;;;;;;;;;4941694;29;20031;-56
2022/10/04 04:59:24;;;;;;;20.33;4.38;;;;;;;;;;4941559;29;20036;-56
2022/10/04 05:01:52;;;;;;;16.90;3.83;;;;;;;;;;4941630;29;20103;-56
2022/10/04 05:04:22;;;;;;;13.70;4.05;;;;;;;;;;4941564;28;20100;-56
2022/10/04 05:07:09;;;;;;;14.27;3.50;;;;;;;;;;4941662;29;20019;-55
2022/10/04 05:09:37;;;;;;;17.05;4.22;;;;;;;;;;4941415;29;20034;-56
2022/10/04 05:12:06;;;;;;;18.77;3.92;;;;;;;;;;4941565;29;20512;-56
2022/10/04 05:14:34;;;;;;;14.07;4.00;;;;;;;;;;4941296;28;20067;-56
2022/10/04 05:17:01;;;;;;;17.08;3.80;;;;;;;;;;4941499;29;20494;-56
2022/10/04 05:19:32;;;;;;;12.73;3.95;;;;;;;;;;4941377;29;20070;-56
2022/10/04 05:22:01;;;;;;;17.05;3.85;;;;;;;;;;4956208;28;20466;-56
2022/10/04 05:24:30;;;;;;;19.80;3.63;;;;;;;;;;4941371;29;20023;-56
2022/10/04 05:26:59;;;;;;;17.40;3.92;;;;;;;;;;4941476;29;20043;-56
2022/10/04 05:29:32;;;;;;;14.55;3.67;;;;;;;;;;4941256;29;20110;-56
2022/10/04 05:32:13;;;;;;;14.20;3.30;;;;;;;;;;4941440;29;20118;-55
2022/10/04 05:34:42;;;;;;;16.80;3.42;;;;;;;;;;4941285;29;20019;-56
2022/10/04 05:37:15;;;;;;;15.15;3.47;;;;;;;;;;4941339;29;20020;-55
2022/10/04 05:39:47;;;;;;;16.10;3.65;;;;;;;;;;4941280;28;20040;-56
2022/10/04 05:42:16;;;;;;;16.25;3.42;;;;;;;;;;4941325;28;20063;-55
2022/10/04 05:44:51;;;;;;;17.20;3.47;;;;;;;;;;4941066;29;20482;-56
2022/10/04 05:47:23;;;;;;;13.95;3.20;;;;;;;;;;4941247;29;20039;-56
2022/10/04 05:49:53;;;;;;;12.50;3.45;;;;;;;;;;4941510;28;20386;-57
2022/10/04 05:52:29;;;;;;;12.90;3.28;;;;;;;;;;4938899;29;20122;-57
2022/10/04 05:55:14;;;;;;;13.02;3.60;;;;;;;;;;4938100;29;20024;-58
2022/10/04 05:57:41;;;;;;;15.38;3.67;;;;;;;;;;4938099;28;20036;-56
2022/10/04 06:00:19;;;;;;;14.10;3.75;;;;;;;;;;4952827;28;20117;-57
2022/10/04 06:02:53;;;;;;;16.27;3.50;;;;;;;;;;4936084;29;20520;-53
2022/10/04 06:05:41;;;;;;;16.88;2.92;;;;;;;;;;4938359;29;20475;-56
2022/10/04 06:08:46;;;;;;;12.00;3.28;;;;;;;;;;4938021;29;20430;-54
2022/10/04 06:11:19;;;;;;;11.45;3.70;;;;;;;;;;4935701;29;20103;-56
2022/10/04 06:13:50;;;;;;;11.77;2.75;;;;;;;;;;4935527;29;20146;-55
2022/10/04 06:16:18;;;;;;;15.32;3.97;;;;;;;;;;4936811;29;20465;-51
2022/10/04 06:18:52;;;;;;;10.75;3.05;;;;;;;;;;4937462;29;20068;-55
2022/10/04 06:21:18;;;;;;;13.65;3.22;;;;;;;;;;4937759;29;20043;-54
2022/10/04 06:23:54;;;;;;;12.30;2.83;;;;;;;;;;4937624;29;20032;-57
2022/10/04 06:26:24;;;;;;;13.85;3.95;;;;;;;;;;4937532;29;20027;-55
2022/10/04 06:29:14;;;;;;;11.95;3.05;;;;;;;;;;4937553;29;20475;-52
2022/10/04 06:31:53;;;;;;;9.30;2.92;;;;;;;;;;4936595;29;20418;-53
2022/10/04 06:34:23;;;;;;;9.27;3.13;;;;;;;;;;4937474;29;20038;-50
2022/10/04 06:37:04;;;;;;;12.60;3.42;;;;;;;;;;4937428;29;20087;-55
2022/10/04 06:39:50;;;;;;;10.35;3.13;;;;;;;;;;4937317;29;20051;-56
2022/10/04 06:42:41;;;;;;;10.98;2.65;;;;;;;;;;4937277;29;20062;-56
2022/10/04 06:45:28;;;;;;;7.30;2.50;;;;;;;;;;4937664;29;20394;-55
2022/10/04 06:48:05;;;;;;;8.88;2.80;;;;;;;;;;4937203;29;20513;-55
2022/10/04 06:50:32;;;;;;;7.57;2.65;;;;;;;;;;4937213;29;20087;-55
2022/10/04 06:53:15;;;;;;;10.20;2.67;;;;;;;;;;4937058;29;20027;-57
2022/10/04 06:55:55;;;;;;;9.10;2.70;;;;;;;;;;4937171;29;20432;-55
2022/10/04 06:58:34;;;;;;;4.57;2.20;;;;;;;;;;4937016;29;20058;-57
2022/10/04 07:01:09;;;;;;;8.57;2.78;;;;;;;;;;4937063;29;20031;-56
2022/10/04 07:03:40;;;;;;;9.95;2.58;;;;;;;;;;4935925;29;20534;-55
2022/10/04 07:06:10;;;;;;;6.53;2.63;;;;;;;;;;4937018;29;20067;-57
2022/10/04 07:08:37;;;;;;;5.28;2.42;;;;;;;;;;4936902;29;20412;-57
2022/10/04 07:11:04;;;;;;;9.30;2.88;;;;;;;;;;4936832;29;20099;-54
2022/10/04 07:13:39;;;;;;;7.65;2.40;;;;;;;;;;4935267;29;20055;-57
2022/10/04 07:16:06;;;;;;;8.55;2.80;;;;;;;;;;4936921;29;20027;-51
2022/10/04 07:18:47;;;;;;;8.52;2.38;;;;;;;;;;4936580;29;20040;-53
2022/10/04 07:21:15;;;;;;;9.10;2.78;;;;;;;;;;4936611;29;20035;-55
2022/10/04 07:23:50;;;;;;;5.97;2.72;;;;;;;;;;4936450;29;20030;-50
2022/10/04 07:26:37;;;;;;;5.00;2.08;;;;;;;;;;4936546;29;20046;-53
2022/10/04 07:29:21;;;;;;;6.63;2.15;;;;;;;;;;4936249;29;20078;-52
2022/10/04 07:32:07;;;;;;;6.63;2.40;;;;;;;;;;4936459;29;20397;-53
2022/10/04 07:34:52;;;;;;;8.75;2.50;;;;;;;;;;4936208;29;20027;-53
2022/10/04 07:37:21;;;;;;;7.95;2.50;;;;;;;;;;4936369;29;20478;-55
2022/10/04 07:40:07;;;;;;;5.72;2.42;;;;;;;;;;4936147;29;20046;-53
2022/10/04 07:42:43;;;;;;;4.40;2.20;;;;;;;;;;4936059;29;20040;-53
2022/10/04 07:45:21;;;;;;;5.85;2.20;;;;;;;;;;4936251;29;20028;-51
2022/10/04 07:47:48;;;;;;;6.60;2.30;;;;;;;;;;4936126;29;20036;-53
2022/10/04 07:50:26;;;;;;;6.97;2.33;;;;;;;;;;4936153;29;20020;-53
2022/10/04 07:52:56;;;;;;;6.55;2.28;;;;;;;;;;4935962;29;20031;-51
2022/10/04 07:55:28;;;;;;;7.00;2.25;;;;;;;;;;4936020;29;20031;-55
2022/10/04 07:57:55;;;;;;;;;;;;;;;;;;4936324;29;20071;-54
2022/10/04 08:00:24;;;;;;;5.85;2.30;;;;;;;;;;4936018;28;19914;-54
2022/10/04 08:03:00;;;;;;;8.23;2.38;;;;;;;;;;4935782;29;20111;-53
2022/10/04 08:05:38;;;;;;;5.55;2.10;;;;;;;;;;4935911;29;20024;-51
2022/10/04 08:08:11;;;;;;;6.57;2.22;;;;;;;;;;4935739;29;20421;-55
2022/10/04 08:10:41;;;;;;;5.43;2.13;;;;;;;;;;4935815;29;20030;-54
2022/10/04 08:13:08;;;;;;;6.10;2.13;;;;;;;;;;4935675;29;20048;-51
2022/10/04 08:15:45;;;;;;;7.95;2.28;;;;;;;;;;4935262;29;20503;-54
2022/10/04 08:18:12;;;;;;;3.95;1.80;;;;;;;;;;4935521;29;20625;-55
2022/10/04 08:20:50;;;;;;;6.93;2.10;;;;;;;;;;4935652;29;20028;-56
2022/10/04 08:23:20;;;;;;;4.53;1.90;;;;;;;;;;4935550;29;20060;-55
2022/10/04 08:25:59;;;;;;;12.32;2.28;;;;;;;;;;4935625;29;20035;-55
2022/10/04 08:31:30;;;;;;;7.07;2.30;;;;;;;;;;4935511;29;20107;-55
2022/10/04 08:34:09;;;;;;;6.97;2.15;;;;;;;;;;4935369;29;20031;-56
2022/10/04 08:36:36;;;;;;;5.15;1.83;;;;;;;;;;4935527;29;20438;-56
2022/10/04 08:39:06;;;;;;;5.40;1.98;;;;;;;;;;4935273;29;20036;-56
2022/10/04 08:41:33;;;;;;;6.88;2.17;;;;;;;;;;4935396;29;20027;-55
2022/10/04 08:44:12;;;;;;;5.05;2.08;;;;;;;;;;4935352;29;20035;-54
2022/10/04 08:47:06;;;;;;;5.20;2.00;;;;;;;;;;4935444;29;20498;-55
2022/10/04 08:49:37;;;;;;;5.78;2.00;;;;;;;;;;4935388;29;20040;-56
2022/10/04 08:52:22;;;;;;;5.78;2.10;;;;;;;;;;4935352;29;20057;-56
2022/10/04 08:55:01;;;;;;;6.00;2.35;;;;;;;;;;4935334;29;20036;-55
2022/10/04 08:57:43;;;;;;;5.22;2.35;;;;;;;;;;4935246;29;20024;-55
2022/10/04 09:00:14;;;;;;;5.35;1.83;;;;;;;;;;4935221;29;20398;-57
2022/10/04 09:02:45;;;;;;;8.13;1.98;;;;;;;;;;4935129;29;20043;-57
2022/10/04 09:05:13;;;;;;;6.28;1.98;;;;;;;;;;4935122;29;20127;-57
2022/10/04 09:07:53;;;;;;;6.05;2.28;;;;;;;;;;4935112;29;20040;-57
2022/10/04 09:10:29;;;;;;;5.47;2.17;;;;;;;;;;4935200;29;20030;-57
2022/10/04 09:13:05;;;;;;;5.18;1.80;;;;;;;;;;4934994;29;20050;-55
2022/10/04 09:15:50;;;;;;;4.72;1.98;;;;;;;;;;4934978;29;20138;-56
2022/10/04 09:18:18;;;;;;;4.57;2.08;;;;;;;;;;4935060;29;20032;-57
2022/10/04 09:20:57;;;;;;;8.88;2.00;;;;;;;;;;4935061;29;20118;-57
2022/10/04 09:23:30;;;;;;;4.70;2.13;;;;;;;;;;4934892;29;20486;-57
2022/10/04 09:26:05;;;;;;;3.95;1.92;;;;;;;;;;4935013;29;20046;-56
2022/10/04 09:28:51;;;;;;;4.90;2.05;;;;;;;;;;4938133;29;20402;-57
2022/10/04 09:31:27;;;;;;;6.13;1.95;;;;;;;;;;4938568;29;20558;-57
2022/10/04 09:33:58;;;;;;;6.93;2.28;;;;;;;;;;4938092;29;20051;-55
2022/10/04 09:36:32;;;;;;;7.10;2.00;;;;;;;;;;4938150;29;20044;-56
2022/10/04 09:39:10;;;;;;;5.53;2.25;;;;;;;;;;4936076;29;20052;-57
2022/10/04 09:41:54;;;;;;;2.95;1.73;;;;;;;;;;4935192;29;20038;-57
2022/10/04 09:44:24;;;;;;;7.05;1.83;;;;;;;;;;4934291;29;20394;-57
2022/10/04 09:46:51;;;;;;;6.97;2.25;;;;;;;;;;4937749;29;20035;-55
2022/10/04 09:49:34;;;;;;;10.43;2.55;;;;;;;;;;4932836;29;20027;-55
2022/10/04 09:52:17;;;;;;;7.63;2.10;;;;;;;;;;4938140;29;20038;-55
2022/10/04 09:54:48;;;;;;;15.10;2.70;;;;;;;;;;4938155;29;20031;-56
2022/10/04 09:57:23;;;;;;;13.07;2.75;;;;;;;;;;4938173;28;20043;-55
2022/10/04 10:00:04;;;;;;;6.25;1.90;;;;;;;;;;4938051;28;20055;-56
2022/10/04 10:02:31;;;;;;;6.88;2.35;;;;;;;;;;4937950;28;20032;-55
2022/10/04 10:05:15;;;;;;;10.38;2.60;;;;;;;;;;4938080;29;20020;-55
2022/10/04 10:07:58;;;;;;;8.85;2.35;;;;;;;;;;4938006;28;20143;-54
2022/10/04 10:13:43;;;;;;;11.15;2.28;;;;;;;;;;4936709;29;20039;-57
2022/10/04 10:16:13;;;;;;;8.85;2.20;;;;;;;;;;4937787;29;20078;-56
2022/10/04 10:18:46;;;;;;;7.97;2.40;;;;;;;;;;4952149;28;20046;-53
2022/10/04 10:21:31;;;;;;;10.93;2.20;;;;;;;;;;4937564;29;20028;-58
2022/10/04 10:24:16;;;;;;;16.45;2.10;;;;;;;;;;4936662;29;20028;-56
2022/10/04 10:26:52;;;;;;;11.05;2.25;;;;;;;;;;4934899;29;20056;-56
2022/10/04 10:29:28;;;;;;;13.77;2.75;;;;;;;;;;4935783;29;20083;-53
2022/10/04 10:31:55;;;;;;;12.52;2.08;;;;;;;;;;4935054;29;20026;-49
2022/10/04 10:34:29;;;;;;;10.07;2.50;;;;;;;;;;4951318;28;20485;-50
2022/10/04 10:37:03;;;;;;;9.32;2.53;;;;;;;;;;4936859;29;20498;-57
2022/10/04 10:39:43;;;;;;;9.30;2.25;;;;;;;;;;4936464;29;20039;-57
2022/10/04 10:42:19;;;;;;;15.63;2.33;;;;;;;;;;4935524;29;20039;-60
2022/10/04 10:44:46;;;;;;;11.07;2.25;;;;;;;;;;4937264;29;20035;-60
2022/10/04 10:47:31;;;;;;;11.73;2.58;;;;;;;;;;4937151;29;20035;-60
2022/10/04 10:50:03;;;;;;;11.68;2.60;;;;;;;;;;4937244;29;20106;-60
2022/10/04 10:52:36;;;;;;;10.05;2.33;;;;;;;;;;4937059;28;20024;-60
2022/10/04 10:55:22;;;;;;;10.52;2.60;;;;;;;;;;4937170;29;20107;-60
2022/10/04 10:58:15;;;;;;;14.02;2.38;;;;;;;;;;4937075;28;20047;-60
2022/10/04 11:00:53;;;;;;;9.90;2.28;;;;;;;;;;4936960;29;20032;-60
2022/10/04 11:03:29;;;;;;;13.77;2.97;;;;;;;;;;4936970;29;20052;-60
2022/10/04 11:06:14;;;;;;;20.45;2.83;;;;;;;;;;4936603;29;20028;-58
2022/10/04 11:09:13;;;;;;;22.80;2.70;;;;;;;;;;4936904;29;20512;-54
2022/10/04 11:11:59;;;;;;;35.53;3.42;;;;;;;;;;4936768;29;20020;-59
2022/10/04 11:14:35;;;;;;;21.77;2.95;;;;;;;;;;4936495;29;20062;-56
2022/10/04 11:17:11;;;;;;;20.88;2.92;;;;;;;;;;4936763;28;20035;-55
2022/10/04 11:19:57;;;;;;;18.80;3.28;;;;;;;;;;4936638;29;20083;-57
2022/10/04 11:22:29;;;;;;;52.33;7.40;;;;;;;;;;4936508;29;20028;-60
2022/10/04 11:25:00;;;;;;;48.92;6.00;;;;;;;;;;4936658;28;20039;-59
2022/10/04 11:27:34;;;;;;;213.73;12.48;;;;;;;;;;4936484;29;20016;-60
2022/10/04 11:30:09;;;;;;;49.05;5.43;;;;;;;;;;4936520;29;20035;-59
2022/10/04 11:32:48;;;;;;;178.05;13.15;;;;;;;;;;4951059;28;20023;-61
2022/10/04 11:35:44;;;;;;;69.10;7.28;;;;;;;;;;4936732;29;20538;-61
2022/10/04 11:38:13;;;;;;;57.53;6.07;;;;;;;;;;4917765;29;20075;-59
2022/10/04 11:40:43;;;;;;;49.05;5.93;;;;;;;;;;4936358;28;20038;-59
2022/10/04 11:43:17;;;;;;;135.00;9.82;;;;;;;;;;4936205;29;20359;-61
2022/10/04 11:46:08;;;;;;;46.92;5.13;;;;;;;;;;4936130;29;20036;-62
2022/10/04 11:48:52;;;;;;;42.65;4.68;;;;;;;;;;4936149;29;20549;-63
2022/10/04 11:51:19;;;;;;;130.95;10.77;;;;;;;;;;4935584;28;20486;-63
2022/10/04 11:54:06;;;;;;;330.48;24.73;;;;;;;;;;4935947;29;20028;-63
2022/10/04 11:56:55;;;;;;;308.55;22.73;;;;;;;;;;4950623;29;20024;-62
2022/10/04 11:59:40;;;;;;;596.20;41.35;;;;;;;;;;4935867;29;20036;-63
2022/10/04 12:02:26;;;;;;;215.30;16.65;;;;;;;;;;4935818;29;20024;-63
2022/10/04 12:05:11;;;;;;;143.35;14.38;;;;;;;;;;4935895;29;20083;-62
2022/10/04 12:07:49;;;;;;;127.45;14.07;;;;;;;;;;4935878;29;20050;-63
2022/10/04 12:10:21;;;;;;;120.43;12.73;;;;;;;;;;4935763;29;20032;-63
2022/10/04 12:13:06;;;;;;;117.32;13.65;;;;;;;;;;4935670;29;20019;-63
2022/10/04 12:15:48;;;;;;;183.40;18.23;;;;;;;;;;4935550;29;20127;-63
2022/10/04 12:18:25;;;;;;;101.68;10.77;;;;;;;;;;4949701;28;20053;-62
2022/10/04 12:21:11;;;;;;;79.78;8.98;;;;;;;;;;4935681;29;20031;-62
2022/10/04 12:23:56;;;;;;;70.22;8.93;;;;;;;;;;4935549;28;20032;-63
2022/10/04 12:26:41;;;;;;;55.92;6.93;;;;;;;;;;4935618;29;20023;-63
2022/10/04 12:29:17;;;;;;;49.05;7.00;;;;;;;;;;4935595;29;20047;-63
2022/10/04 12:31:52;;;;;;;42.25;5.80;;;;;;;;;;4935572;29;20493;-63
2022/10/04 12:34:37;;;;;;;50.08;6.40;;;;;;;;;;4935450;28;20032;-63
2022/10/04 12:37:12;;;;;;;46.28;6.90;;;;;;;;;;4935527;29;20019;-63
2022/10/04 12:39:45;;;;;;;35.05;5.60;;;;;;;;;;4935380;29;20479;-62
2022/10/04 12:42:30;;;;;;;30.77;5.82;;;;;;;;;;4935398;29;20039;-62
2022/10/04 12:45:18;;;;;;;36.30;5.07;;;;;;;;;;4935319;29;20038;-62
2022/10/04 12:48:11;;;;;;;32.95;4.53;;;;;;;;;;4935394;29;20486;-62
2022/10/04 12:50:49;;;;;;;34.47;5.07;;;;;;;;;;4934410;29;20538;-62
2022/10/04 12:53:33;;;;;;;29.63;4.72;;;;;;;;;;4935199;29;20031;-62
2022/10/04 12:56:00;;;;;;;31.45;4.43;;;;;;;;;;4935365;28;20398;-62
2022/10/04 12:58:29;;;;;;;30.02;4.47;;;;;;;;;;4935249;29;20107;-62
2022/10/04 13:00:59;;;;;;;28.85;4.68;;;;;;;;;;4935814;28;20114;-62
2022/10/04 13:03:34;;;;;;;25.75;5.18;;;;;;;;;;4939089;29;20062;-62
2022/10/04 13:06:04;;;;;;;34.20;5.28;;;;;;;;;;4939177;29;20032;-62
2022/10/04 13:08:37;;;;;;;29.38;4.05;;;;;;;;;;4939093;29;20087;-62
2022/10/04 13:11:22;;;;;;;31.00;5.25;;;;;;;;;;4939019;29;20036;-62
2022/10/04 13:14:00;;;;;;;19.58;4.32;;;;;;;;;;4952597;28;20549;-62
2022/10/04 13:16:56;;;;;;;29.75;4.82;;;;;;;;;;4938875;29;20035;-62
2022/10/04 13:19:23;;;;;;;28.95;4.93;;;;;;;;;;4934256;29;20127;-62
2022/10/04 13:22:00;;;;;;;26.17;4.10;;;;;;;;;;4938698;28;20111;-62
2022/10/04 13:24:53;;;;;;;31.90;4.20;;;;;;;;;;4938841;29;20031;-62
2022/10/04 13:27:24;;;;;;;27.23;4.90;;;;;;;;;;4938721;28;20536;-62
2022/10/04 13:29:54;;;;;;;26.17;4.57;;;;;;;;;;4938905;29;20028;-62
2022/10/04 13:32:26;;;;;;;33.13;4.93;;;;;;;;;;4935995;29;20119;-62
2022/10/04 13:34:52;;;;;;;27.63;4.65;;;;;;;;;;4935106;28;20054;-60
2022/10/04 13:37:22;;;;;;;33.88;4.40;;;;;;;;;;4937840;28;20042;-60
2022/10/04 13:40:04;;;;;;;35.80;4.72;;;;;;;;;;4938435;29;20063;-60
2022/10/04 13:42:34;;;;;;;20.67;3.95;;;;;;;;;;4938014;29;20127;-62
2022/10/04 13:45:04;;;;;;;25.85;4.60;;;;;;;;;;4937845;29;20028;-61
2022/10/04 13:47:56;;;;;;;19.85;4.18;;;;;;;;;;4937585;29;20032;-60
2022/10/04 13:50:24;;;;;;;28.15;4.30;;;;;;;;;;4936090;29;20030;-62
2022/10/04 13:58:53;;;;;;;20.52;3.72;;;;;;;;;;4934061;29;20055;-62
2022/10/04 14:01:20;;;;;;;16.20;4.40;;;;;;;;;;4935363;29;20359;-61
2022/10/04 14:03:50;;;;;;;15.77;3.65;;;;;;;;;;4937541;29;20031;-62
2022/10/04 14:06:28;;;;;;;20.20;4.05;;;;;;;;;;4932316;29;20047;-60
2022/10/04 14:08:55;;;;;;;26.92;4.57;;;;;;;;;;4937395;29;20087;-61
2022/10/04 14:11:40;;;;;;;18.95;4.10;;;;;;;;;;4937188;29;20028;-62
2022/10/04 14:14:10;;;;;;;20.75;4.55;;;;;;;;;;4948868;28;20052;-60
2022/10/04 14:16:49;;;;;;;21.63;4.45;;;;;;;;;;4934829;29;20359;-61
2022/10/04 14:19:19;;;;;;;20.05;4.13;;;;;;;;;;4937082;29;20036;-60
2022/10/04 14:22:05;;;;;;;26.45;4.03;;;;;;;;;;4936971;29;20024;-60
2022/10/04 14:24:44;;;;;;;25.00;5.25;;;;;;;;;;4936471;29;20043;-61
2022/10/04 14:27:22;;;;;;;21.23;4.57;;;;;;;;;;4937793;28;20120;-61
2022/10/04 14:29:55;;;;;;;17.83;4.30;;;;;;;;;;4931955;29;20035;-62
2022/10/04 14:32:22;;;;;;;27.50;4.82;;;;;;;;;;4936861;29;20026;-60
2022/10/04 14:34:54;;;;;;;23.20;4.82;;;;;;;;;;4931786;29;20458;-62
2022/10/04 14:37:27;;;;;;;28.45;5.50;;;;;;;;;;4936956;28;20451;-61
2022/10/04 14:40:10;;;;;;;23.60;5.22;;;;;;;;;;4934938;29;20094;-60
2022/10/04 14:43:09;;;;;;;20.85;4.22;;;;;;;;;;4935207;29;20509;-60
2022/10/04 14:45:39;;;;;;;27.48;5.95;;;;;;;;;;4929174;29;20050;-62
2022/10/04 14:48:06;;;;;;;37.40;13.30;;;;;;;;;;4936776;29;20079;-59
2022/10/04 14:50:51;;;;;;;39.55;17.98;;;;;;;;;;4937140;29;20032;-60
2022/10/04 14:53:35;;;;;;;51.83;22.92;;;;;;;;;;4936810;29;20057;-60
2022/10/04 14:56:11;;;;;;;38.78;17.73;;;;;;;;;;4935615;29;20070;-61
2022/10/04 14:58:39;;;;;;;34.30;14.43;;;;;;;;;;4935080;29;20046;-60
2022/10/04 15:01:06;;;;;;;39.60;14.82;;;;;;;;;;4936352;29;20040;-60
2022/10/04 15:03:37;;;;;;;37.08;14.68;;;;;;;;;;4936213;29;20107;-61
2022/10/04 15:06:10;;;;;;;41.65;14.10;;;;;;;;;;4936306;29;20040;-62
2022/10/04 15:08:44;;;;;;;34.40;14.85;;;;;;;;;;4936395;29;20027;-60
2022/10/04 15:11:17;;;;;;;33.05;14.57;;;;;;;;;;4934173;29;20063;-61
2022/10/04 15:14:04;;;;;;;43.72;15.52;;;;;;;;;;4935908;29;20114;-62
2022/10/04 15:16:32;;;;;;;49.42;16.35;;;;;;;;;;4933759;29;20031;-62
2022/10/04 15:19:24;;;;;;;43.92;16.70;;;;;;;;;;4936236;29;20047;-61
2022/10/04 15:22:03;;;;;;;45.53;17.07;;;;;;;;;;4935978;29;20505;-60
2022/10/04 15:24:31;;;;;;;53.80;18.52;;;;;;;;;;4933230;29;20490;-60
2022/10/04 15:27:24;;;;;;;45.33;17.67;;;;;;;;;;4936230;29;20027;-61
2022/10/04 15:30:02;;;;;;;56.35;18.05;;;;;;;;;;4934787;29;20482;-61
2022/10/04 15:32:43;;;;;;;54.97;20.75;;;;;;;;;;4949689;29;20043;-62